createdAt,value
2017-02-24T00:00:00.549Z,0
2017-02-24T00:01:13.245Z,0
2017-02-24T00:02:26.322Z,0
2017-02-24T00:03:39.399Z,0
2017-02-24T00:04:52.453Z,0
2017-02-24T00:06:05.123Z,0
2017-02-24T00:07:17.021Z,0
2017-02-24T00:08:30.069Z,0
2017-02-24T00:09:43.141Z,0
2017-02-24T00:10:56.236Z,0
2017-02-24T00:12:09.287Z,0
2017-02-24T00:13:22.025Z,0
2017-02-24T00:14:35.096Z,0
2017-02-24T00:15:48.141Z,0
2017-02-24T00:17:00.830Z,0
2017-02-24T00:18:13.884Z,0
2017-02-24T00:19:26.949Z,0
2017-02-24T00:20:40.273Z,0
2017-02-24T00:21:53.371Z,0
2017-02-24T00:23:06.459Z,0
2017-02-24T00:24:19.546Z,0
2017-02-24T00:25:32.612Z,0
2017-02-24T00:26:45.659Z,0
2017-02-24T00:27:58.718Z,0
2017-02-24T00:29:11.378Z,0
2017-02-24T00:30:24.489Z,0
2017-02-24T00:31:37.556Z,0
2017-02-24T00:32:50.254Z,0
2017-02-24T00:34:03.323Z,0
2017-02-24T00:35:16.428Z,0
2017-02-24T00:36:29.514Z,0
2017-02-24T00:37:42.621Z,0
2017-02-24T00:38:55.689Z,0
2017-02-24T00:40:08.340Z,0
2017-02-24T00:41:21.025Z,0
2017-02-24T00:42:34.101Z,0
2017-02-24T00:43:46.414Z,0
2017-02-24T00:44:59.471Z,0
2017-02-24T00:46:12.568Z,0
2017-02-24T00:47:24.855Z,0
2017-02-24T00:48:37.947Z,0
2017-02-24T00:49:51.026Z,0
2017-02-24T00:51:03.750Z,0
2017-02-24T00:52:16.810Z,0
2017-02-24T00:53:29.847Z,0
2017-02-24T00:54:42.915Z,0
2017-02-24T00:55:56.021Z,0
2017-02-24T00:57:08.701Z,0
2017-02-24T00:58:21.776Z,0
2017-02-24T00:59:34.450Z,0
2017-02-24T01:00:47.509Z,0
2017-02-24T01:02:00.556Z,0
2017-02-24T01:03:12.884Z,0
2017-02-24T01:04:26.218Z,0
2017-02-24T01:05:39.272Z,0
2017-02-24T01:06:52.372Z,0
2017-02-24T01:08:05.469Z,0
2017-02-24T01:09:18.535Z,0
2017-02-24T01:10:31.627Z,0
2017-02-24T01:11:44.697Z,0
2017-02-24T01:12:57.743Z,0
2017-02-24T01:14:10.785Z,0
2017-02-24T01:15:23.832Z,0
2017-02-24T01:16:36.881Z,0
2017-02-24T01:17:49.948Z,0
2017-02-24T01:19:03.027Z,0
2017-02-24T01:20:15.569Z,0
2017-02-24T01:21:28.639Z,0
2017-02-24T01:22:41.715Z,0
2017-02-24T01:23:54.781Z,0
2017-02-24T01:25:07.828Z,0
2017-02-24T01:26:20.507Z,0
2017-02-24T01:27:33.594Z,0
2017-02-24T01:28:46.687Z,0
2017-02-24T01:29:59.761Z,0
2017-02-24T01:31:12.810Z,0
2017-02-24T01:32:25.907Z,0
2017-02-24T01:33:38.973Z,0
2017-02-24T01:34:52.029Z,0
2017-02-24T01:36:05.094Z,0
2017-02-24T01:37:17.382Z,0
2017-02-24T01:38:30.464Z,0
2017-02-24T01:39:43.582Z,0
2017-02-24T01:40:56.661Z,0
2017-02-24T01:42:09.726Z,0
2017-02-24T01:43:22.801Z,0
2017-02-24T01:44:35.508Z,0
2017-02-24T01:45:48.581Z,0
2017-02-24T01:47:01.649Z,0
2017-02-24T01:48:14.308Z,0
2017-02-24T01:49:27.396Z,0
2017-02-24T01:50:40.490Z,0
2017-02-24T01:51:53.142Z,0
2017-02-24T01:53:06.256Z,0
2017-02-24T01:54:19.299Z,0
2017-02-24T01:55:32.360Z,0
2017-02-24T01:56:45.402Z,0
2017-02-24T01:57:58.447Z,0
2017-02-24T01:59:11.161Z,0
2017-02-24T02:00:23.858Z,0
2017-02-24T02:01:36.903Z,0
2017-02-24T02:02:49.983Z,0
2017-02-24T02:04:03.070Z,0
2017-02-24T02:05:15.351Z,0
2017-02-24T02:06:28.416Z,0
2017-02-24T02:07:41.512Z,0
2017-02-24T02:08:54.582Z,0
2017-02-24T02:10:07.253Z,0
2017-02-24T02:11:19.903Z,0
2017-02-24T02:12:32.975Z,0
2017-02-24T02:13:46.046Z,0
2017-02-24T02:14:59.111Z,0
2017-02-24T02:16:12.183Z,0
2017-02-24T02:17:24.858Z,0
2017-02-24T02:18:37.921Z,0
2017-02-24T02:19:50.988Z,0
2017-02-24T02:21:04.092Z,0
2017-02-24T02:22:17.158Z,0
2017-02-24T02:23:29.861Z,0
2017-02-24T02:24:42.932Z,0
2017-02-24T02:25:56.067Z,0
2017-02-24T02:27:08.338Z,0
2017-02-24T02:28:21.046Z,0
2017-02-24T02:29:34.108Z,0
2017-02-24T02:30:47.203Z,0
2017-02-24T02:32:00.250Z,0
2017-02-24T02:33:12.541Z,0
2017-02-24T02:34:25.620Z,0
2017-02-24T02:35:38.688Z,0
2017-02-24T02:36:51.379Z,0
2017-02-24T02:38:04.478Z,0
2017-02-24T02:39:16.797Z,0
2017-02-24T02:40:29.846Z,0
2017-02-24T02:41:43.152Z,0
2017-02-24T02:42:56.176Z,0
2017-02-24T02:44:09.288Z,0
2017-02-24T02:45:21.951Z,0
2017-02-24T02:46:34.625Z,0
2017-02-24T02:47:47.729Z,0
2017-02-24T02:49:00.825Z,0
2017-02-24T02:50:13.873Z,0
2017-02-24T02:51:26.921Z,0
2017-02-24T02:52:39.961Z,0
2017-02-24T02:53:52.997Z,0
2017-02-24T02:55:06.080Z,0
2017-02-24T02:56:19.120Z,0
2017-02-24T02:57:32.189Z,0
2017-02-24T02:58:45.281Z,0
2017-02-24T02:59:58.368Z,0
2017-02-24T03:01:11.427Z,0
2017-02-24T03:02:24.119Z,0
2017-02-24T03:03:37.165Z,0
2017-02-24T03:04:49.835Z,0
2017-02-24T03:06:02.864Z,0
2017-02-24T03:07:15.159Z,0
2017-02-24T03:08:28.201Z,0
2017-02-24T03:09:41.257Z,0
2017-02-24T03:10:54.321Z,0
2017-02-24T03:12:07.371Z,0
2017-02-24T03:13:20.414Z,0
2017-02-24T03:14:33.489Z,0
2017-02-24T03:15:46.533Z,0
2017-02-24T03:16:59.182Z,0
2017-02-24T03:18:12.246Z,0
2017-02-24T03:19:24.926Z,0
2017-02-24T03:20:37.994Z,0
2017-02-24T03:21:51.080Z,0
2017-02-24T03:23:04.184Z,0
2017-02-24T03:24:16.875Z,0
2017-02-24T03:25:29.939Z,0
2017-02-24T03:26:43.024Z,0
2017-02-24T03:27:56.109Z,0
2017-02-24T03:29:09.227Z,0
2017-02-24T03:30:22.573Z,0
2017-02-24T03:31:35.644Z,0
2017-02-24T03:32:48.293Z,0
2017-02-24T03:34:01.422Z,0
2017-02-24T03:35:14.471Z,0
2017-02-24T03:36:27.532Z,0
2017-02-24T03:37:40.586Z,0
2017-02-24T03:38:53.643Z,0
2017-02-24T03:40:06.697Z,0
2017-02-24T03:41:18.996Z,0
2017-02-24T03:42:32.055Z,0
2017-02-24T03:43:45.134Z,0
2017-02-24T03:44:58.200Z,0
2017-02-24T03:46:11.321Z,0
2017-02-24T03:47:24.363Z,0
2017-02-24T03:48:37.390Z,0
2017-02-24T03:49:50.469Z,0
2017-02-24T03:51:03.162Z,0
2017-02-24T03:52:15.850Z,0
2017-02-24T03:53:28.922Z,0
2017-02-24T03:54:42.012Z,0
2017-02-24T03:55:55.072Z,0
2017-02-24T03:57:07.787Z,0
2017-02-24T03:58:20.857Z,0
2017-02-24T03:59:33.883Z,0
2017-02-24T04:00:46.974Z,0
2017-02-24T04:01:59.648Z,0
2017-02-24T04:03:12.732Z,0
2017-02-24T04:04:25.788Z,0
2017-02-24T04:05:38.881Z,0
2017-02-24T04:06:51.581Z,0
2017-02-24T04:08:04.891Z,0
2017-02-24T04:09:17.569Z,0
2017-02-24T04:10:30.645Z,0
2017-02-24T04:11:43.706Z,0
2017-02-24T04:12:56.406Z,0
2017-02-24T04:14:09.469Z,0
2017-02-24T04:15:22.555Z,0
2017-02-24T04:16:35.589Z,0
2017-02-24T04:17:48.684Z,0
2017-02-24T04:19:01.641Z,0
2017-02-24T04:20:14.372Z,0
2017-02-24T04:21:27.429Z,0
2017-02-24T04:22:40.468Z,0
2017-02-24T04:23:53.570Z,0
2017-02-24T04:25:06.596Z,0
2017-02-24T04:26:19.685Z,0
2017-02-24T04:27:32.336Z,0
2017-02-24T04:28:45.410Z,0
2017-02-24T04:29:58.467Z,0
2017-02-24T04:31:11.568Z,0
2017-02-24T04:32:24.267Z,0
2017-02-24T04:33:37.389Z,0
2017-02-24T04:34:50.473Z,0
2017-02-24T04:36:03.531Z,0
2017-02-24T04:37:16.565Z,0
2017-02-24T04:38:29.601Z,0
2017-02-24T04:39:42.692Z,0
2017-02-24T04:40:55.402Z,0
2017-02-24T04:42:08.452Z,0
2017-02-24T04:43:21.154Z,0
2017-02-24T04:44:34.216Z,0
2017-02-24T04:45:47.277Z,0
2017-02-24T04:47:00.343Z,0
2017-02-24T04:48:13.392Z,0
2017-02-24T04:49:26.477Z,0
2017-02-24T04:50:39.548Z,0
2017-02-24T04:51:52.626Z,0
2017-02-24T04:53:05.698Z,0
2017-02-24T04:54:18.740Z,0
2017-02-24T04:55:31.815Z,0
2017-02-24T04:56:44.885Z,0
2017-02-24T04:57:57.980Z,0
2017-02-24T04:59:10.703Z,0
2017-02-24T05:00:23.012Z,0
2017-02-24T05:01:36.062Z,0
2017-02-24T05:02:49.435Z,0
2017-02-24T05:04:01.705Z,0
2017-02-24T05:05:14.424Z,0
2017-02-24T05:06:27.491Z,0
2017-02-24T05:07:40.520Z,0
2017-02-24T05:08:53.588Z,0
2017-02-24T05:10:06.689Z,0
2017-02-24T05:11:19.725Z,0
2017-02-24T05:12:32.407Z,0
2017-02-24T05:13:45.478Z,0
2017-02-24T05:14:58.540Z,0
2017-02-24T05:16:11.237Z,0
2017-02-24T05:17:23.937Z,0
2017-02-24T05:18:36.987Z,0
2017-02-24T05:19:49.709Z,0
2017-02-24T05:21:02.793Z,0
2017-02-24T05:22:15.846Z,0
2017-02-24T05:23:28.521Z,0
2017-02-24T05:24:41.566Z,0
2017-02-24T05:25:54.658Z,0
2017-02-24T05:27:07.782Z,0
2017-02-24T05:28:20.853Z,0
2017-02-24T05:29:34.173Z,0
2017-02-24T05:30:47.199Z,0
2017-02-24T05:31:59.888Z,0
2017-02-24T05:33:12.962Z,0
2017-02-24T05:34:26.055Z,0
2017-02-24T05:35:39.101Z,0
2017-02-24T05:36:52.150Z,0
2017-02-24T05:38:04.822Z,0
2017-02-24T05:39:17.855Z,0
2017-02-24T05:40:30.914Z,0
2017-02-24T05:41:43.583Z,0
2017-02-24T05:42:56.680Z,0
2017-02-24T05:44:09.744Z,0
2017-02-24T05:45:22.842Z,0
2017-02-24T05:46:35.496Z,0
2017-02-24T05:47:48.564Z,0
2017-02-24T05:49:01.650Z,0
2017-02-24T05:50:14.728Z,0
2017-02-24T05:51:27.832Z,0
2017-02-24T05:52:40.894Z,0
2017-02-24T05:53:53.590Z,0
2017-02-24T05:55:06.664Z,0
2017-02-24T05:56:19.735Z,0
2017-02-24T05:57:32.411Z,0
2017-02-24T05:58:45.441Z,0
2017-02-24T05:59:58.500Z,0
2017-02-24T06:01:11.583Z,0
2017-02-24T06:02:24.229Z,0
2017-02-24T06:03:37.254Z,5
2017-02-24T06:04:50.338Z,5
2017-02-24T06:06:03.404Z,5
2017-02-24T06:07:16.488Z,10
2017-02-24T06:08:29.141Z,10
2017-02-24T06:09:42.195Z,15
2017-02-24T06:10:55.251Z,20
2017-02-24T06:12:07.971Z,25
2017-02-24T06:13:20.250Z,25
2017-02-24T06:14:33.354Z,30
2017-02-24T06:15:46.375Z,40
2017-02-24T06:16:59.062Z,40
2017-02-24T06:18:11.759Z,35
2017-02-24T06:19:24.811Z,35
2017-02-24T06:20:37.879Z,35
2017-02-24T06:21:50.997Z,35
2017-02-24T06:23:04.072Z,35
2017-02-24T06:24:16.981Z,40
2017-02-24T06:25:29.659Z,35
2017-02-24T06:26:42.736Z,40
2017-02-24T06:27:55.872Z,40
2017-02-24T06:29:08.564Z,40
2017-02-24T06:30:21.593Z,45
2017-02-24T06:31:34.660Z,50
2017-02-24T06:32:47.737Z,45
2017-02-24T06:34:00.781Z,50
2017-02-24T06:35:13.805Z,50
2017-02-24T06:36:26.828Z,55
2017-02-24T06:37:39.873Z,60
2017-02-24T06:38:52.933Z,60
2017-02-24T06:40:05.611Z,50
2017-02-24T06:41:18.310Z,60
2017-02-24T06:42:31.370Z,65
2017-02-24T06:43:44.448Z,70
2017-02-24T06:44:57.498Z,70
2017-02-24T06:46:10.219Z,60
2017-02-24T06:47:22.889Z,55
2017-02-24T06:48:35.978Z,55
2017-02-24T06:49:48.671Z,70
2017-02-24T06:51:01.349Z,70
2017-02-24T06:52:14.413Z,55
2017-02-24T06:53:27.495Z,60
2017-02-24T06:54:40.587Z,65
2017-02-24T06:55:53.653Z,55
2017-02-24T06:57:06.724Z,50
2017-02-24T06:58:19.817Z,50
2017-02-24T06:59:32.124Z,55
2017-02-24T07:00:45.171Z,50
2017-02-24T07:01:57.892Z,50
2017-02-24T07:03:11.201Z,50
2017-02-24T07:04:24.258Z,70
2017-02-24T07:05:37.323Z,65
2017-02-24T07:06:50.039Z,60
2017-02-24T07:08:03.162Z,55
2017-02-24T07:09:16.239Z,55
2017-02-24T07:10:28.892Z,50
2017-02-24T07:11:41.935Z,70
2017-02-24T07:12:55.001Z,80
2017-02-24T07:14:08.050Z,75
2017-02-24T07:15:20.694Z,75
2017-02-24T07:16:33.372Z,75
2017-02-24T07:17:46.410Z,85
2017-02-24T07:18:59.087Z,75
2017-02-24T07:20:11.777Z,60
2017-02-24T07:21:24.476Z,65
2017-02-24T07:22:37.547Z,70
2017-02-24T07:23:50.610Z,65
2017-02-24T07:25:03.904Z,65
2017-02-24T07:26:16.960Z,100
2017-02-24T07:27:29.994Z,70
2017-02-24T07:28:42.673Z,60
2017-02-24T07:29:55.369Z,60
2017-02-24T07:31:08.464Z,60
2017-02-24T07:32:21.132Z,70
2017-02-24T07:33:34.214Z,70
2017-02-24T07:34:47.273Z,60
2017-02-24T07:36:00.304Z,60
2017-02-24T07:37:13.372Z,50
2017-02-24T07:38:26.465Z,70
2017-02-24T07:39:39.157Z,125
2017-02-24T07:40:51.861Z,115
2017-02-24T07:42:04.924Z,150
2017-02-24T07:43:17.626Z,100
2017-02-24T07:44:30.300Z,55
2017-02-24T07:45:43.358Z,110
2017-02-24T07:46:56.403Z,180
2017-02-24T07:48:09.452Z,210
2017-02-24T07:49:22.504Z,165
2017-02-24T07:50:35.170Z,205
2017-02-24T07:51:48.224Z,290
2017-02-24T07:53:00.521Z,320
2017-02-24T07:54:13.582Z,335
2017-02-24T07:55:26.241Z,335
2017-02-24T07:56:38.928Z,345
2017-02-24T07:57:51.617Z,335
2017-02-24T07:59:04.317Z,340
2017-02-24T08:00:16.994Z,370
2017-02-24T08:01:30.033Z,355
2017-02-24T08:02:43.064Z,365
2017-02-24T08:03:55.733Z,425
2017-02-24T08:05:08.800Z,420
2017-02-24T08:06:21.496Z,375
2017-02-24T08:07:34.212Z,340
2017-02-24T08:08:47.287Z,270
2017-02-24T08:10:00.336Z,300
2017-02-24T08:11:13.009Z,410
2017-02-24T08:12:25.321Z,340
2017-02-24T08:13:38.404Z,465
2017-02-24T08:14:51.467Z,460
2017-02-24T08:16:04.520Z,445
2017-02-24T08:17:17.184Z,435
2017-02-24T08:18:30.259Z,425
2017-02-24T08:19:42.555Z,415
2017-02-24T08:20:55.597Z,390
2017-02-24T08:22:07.495Z,365
2017-02-24T08:23:20.556Z,335
2017-02-24T08:24:33.214Z,310
2017-02-24T08:25:45.910Z,265
2017-02-24T08:26:59.000Z,255
2017-02-24T08:28:10.925Z,225
2017-02-24T08:29:23.617Z,155
2017-02-24T08:30:36.314Z,125
2017-02-24T08:31:49.385Z,115
2017-02-24T08:33:02.461Z,150
2017-02-24T08:34:15.506Z,155
2017-02-24T08:35:28.590Z,230
2017-02-24T08:36:41.668Z,195
2017-02-24T08:37:54.343Z,140
2017-02-24T08:39:07.413Z,150
2017-02-24T08:40:20.484Z,265
2017-02-24T08:41:33.553Z,155
2017-02-24T08:42:46.623Z,140
2017-02-24T08:43:59.687Z,215
2017-02-24T08:45:12.365Z,295
2017-02-24T08:46:25.412Z,255
2017-02-24T08:47:38.127Z,240
2017-02-24T08:48:50.804Z,265
2017-02-24T08:50:03.873Z,275
2017-02-24T08:51:16.948Z,300
2017-02-24T08:52:29.632Z,295
2017-02-24T08:53:42.702Z,300
2017-02-24T08:54:55.735Z,355
2017-02-24T08:56:08.795Z,375
2017-02-24T08:57:21.501Z,360
2017-02-24T08:58:34.549Z,345
2017-02-24T08:59:47.594Z,320
2017-02-24T09:01:00.655Z,255
2017-02-24T09:02:13.686Z,215
2017-02-24T09:03:26.732Z,245
2017-02-24T09:04:39.777Z,230
2017-02-24T09:05:52.462Z,340
2017-02-24T09:07:05.540Z,335
2017-02-24T09:08:18.662Z,435
2017-02-24T09:09:31.709Z,405
2017-02-24T09:10:44.458Z,425
2017-02-24T09:11:57.153Z,385
2017-02-24T09:13:09.862Z,400
2017-02-24T09:14:22.911Z,400
2017-02-24T09:15:35.989Z,395
2017-02-24T09:16:49.036Z,370
2017-02-24T09:18:01.731Z,355
2017-02-24T09:19:15.042Z,330
2017-02-24T09:20:28.073Z,305
2017-02-24T09:21:41.133Z,260
2017-02-24T09:22:54.212Z,205
2017-02-24T09:24:07.262Z,195
2017-02-24T09:25:20.335Z,185
2017-02-24T09:26:33.395Z,180
2017-02-24T09:27:46.087Z,160
2017-02-24T09:28:59.101Z,155
2017-02-24T09:30:11.767Z,140
2017-02-24T09:31:24.837Z,145
2017-02-24T09:32:37.879Z,135
2017-02-24T09:33:49.795Z,120
2017-02-24T09:35:02.099Z,140
2017-02-24T09:36:14.787Z,175
2017-02-24T09:37:27.488Z,195
2017-02-24T09:38:40.529Z,205
2017-02-24T09:39:53.599Z,260
2017-02-24T09:41:06.271Z,315
2017-02-24T09:42:18.550Z,355
2017-02-24T09:43:31.659Z,395
2017-02-24T09:44:44.687Z,445
2017-02-24T09:45:57.761Z,470
2017-02-24T09:47:10.832Z,465
2017-02-24T09:48:23.904Z,465
2017-02-24T09:49:36.999Z,440
2017-02-24T09:50:50.062Z,395
2017-02-24T09:52:03.115Z,345
2017-02-24T09:53:15.813Z,395
2017-02-24T09:54:28.934Z,405
2017-02-24T09:55:42.004Z,380
2017-02-24T09:56:55.066Z,395
2017-02-24T09:58:07.397Z,435
2017-02-24T09:59:20.417Z,435
2017-02-24T10:00:33.508Z,405
2017-02-24T10:01:46.571Z,410
2017-02-24T10:02:59.617Z,410
2017-02-24T10:04:11.898Z,510
2017-02-24T10:05:24.992Z,480
2017-02-24T10:06:38.087Z,440
2017-02-24T10:07:51.130Z,400
2017-02-24T10:09:03.847Z,390
2017-02-24T10:10:16.510Z,380
2017-02-24T10:11:29.224Z,420
2017-02-24T10:12:42.260Z,485
2017-02-24T10:13:55.316Z,560
2017-02-24T10:15:07.615Z,640
2017-02-24T10:16:20.650Z,680
2017-02-24T10:17:33.695Z,725
2017-02-24T10:18:46.995Z,750
2017-02-24T10:20:00.058Z,780
2017-02-24T10:21:12.354Z,815
2017-02-24T10:22:25.036Z,820
2017-02-24T10:23:37.700Z,830
2017-02-24T10:24:50.778Z,810
2017-02-24T10:26:03.454Z,765
2017-02-24T10:27:16.524Z,765
2017-02-24T10:28:29.617Z,780
2017-02-24T10:29:42.154Z,770
2017-02-24T10:30:55.228Z,750
2017-02-24T10:32:07.504Z,785
2017-02-24T10:33:20.566Z,835
2017-02-24T10:34:33.246Z,835
2017-02-24T10:35:46.316Z,755
2017-02-24T10:36:58.616Z,680
2017-02-24T10:38:11.305Z,675
2017-02-24T10:39:24.346Z,710
2017-02-24T10:40:37.399Z,585
2017-02-24T10:41:50.067Z,435
2017-02-24T10:43:03.113Z,380
2017-02-24T10:44:15.791Z,335
2017-02-24T10:45:28.850Z,340
2017-02-24T10:46:41.947Z,340
2017-02-24T10:47:54.630Z,320
2017-02-24T10:49:07.738Z,305
2017-02-24T10:50:20.838Z,320
2017-02-24T10:51:33.512Z,340
2017-02-24T10:52:46.200Z,355
2017-02-24T10:53:58.900Z,350
2017-02-24T10:55:11.976Z,370
2017-02-24T10:56:25.071Z,405
2017-02-24T10:57:38.134Z,495
2017-02-24T10:58:51.189Z,575
2017-02-24T11:00:03.913Z,670
2017-02-24T11:01:16.593Z,670
2017-02-24T11:02:29.701Z,695
2017-02-24T11:03:42.789Z,685
2017-02-24T11:04:55.885Z,670
2017-02-24T11:06:08.934Z,650
2017-02-24T11:07:21.973Z,655
2017-02-24T11:08:34.651Z,635
2017-02-24T11:09:47.725Z,660
2017-02-24T11:11:00.802Z,740
2017-02-24T11:12:13.114Z,715
2017-02-24T11:13:26.189Z,705
2017-02-24T11:14:39.236Z,800
2017-02-24T11:15:52.303Z,885
2017-02-24T11:17:04.594Z,905
2017-02-24T11:18:17.674Z,875
2017-02-24T11:19:30.385Z,860
2017-02-24T11:20:43.488Z,880
2017-02-24T11:21:55.784Z,875
2017-02-24T11:23:08.044Z,885
2017-02-24T11:24:21.123Z,895
2017-02-24T11:25:34.219Z,910
2017-02-24T11:26:47.311Z,920
2017-02-24T11:28:00.390Z,860
2017-02-24T11:29:13.481Z,715
2017-02-24T11:30:26.604Z,590
2017-02-24T11:31:39.652Z,480
2017-02-24T11:32:52.737Z,385
2017-02-24T11:34:05.815Z,295
2017-02-24T11:35:18.914Z,260
2017-02-24T11:36:31.599Z,230
2017-02-24T11:37:44.645Z,205
2017-02-24T11:38:57.724Z,195
2017-02-24T11:40:10.769Z,190
2017-02-24T11:41:23.836Z,170
2017-02-24T11:42:36.931Z,185
2017-02-24T11:43:50.006Z,260
2017-02-24T11:45:03.086Z,275
2017-02-24T11:46:16.178Z,305
2017-02-24T11:47:29.239Z,285
2017-02-24T11:48:42.320Z,300
2017-02-24T11:49:55.406Z,265
2017-02-24T11:51:08.529Z,205
2017-02-24T11:52:21.608Z,175
2017-02-24T11:53:34.330Z,205
2017-02-24T11:54:47.465Z,330
2017-02-24T11:56:00.544Z,290
2017-02-24T11:57:13.604Z,185
2017-02-24T11:58:26.628Z,160
2017-02-24T11:59:39.673Z,165
2017-02-24T12:00:52.748Z,240
2017-02-24T12:02:05.844Z,230
2017-02-24T12:03:18.944Z,225
2017-02-24T12:04:32.039Z,240
2017-02-24T12:05:45.110Z,230
2017-02-24T12:06:58.185Z,290
2017-02-24T12:08:11.223Z,430
2017-02-24T12:09:24.252Z,385
2017-02-24T12:10:37.320Z,375
2017-02-24T12:11:49.989Z,455
2017-02-24T12:13:03.039Z,520
2017-02-24T12:14:15.731Z,530
2017-02-24T12:15:28.800Z,560
2017-02-24T12:16:41.870Z,510
2017-02-24T12:17:54.957Z,535
2017-02-24T12:19:07.633Z,595
2017-02-24T12:20:20.303Z,700
2017-02-24T12:21:32.983Z,815
2017-02-24T12:22:46.046Z,835
2017-02-24T12:23:59.146Z,830
2017-02-24T12:25:12.215Z,855
2017-02-24T12:26:25.243Z,875
2017-02-24T12:27:38.320Z,840
2017-02-24T12:28:51.408Z,810
2017-02-24T12:30:04.505Z,795
2017-02-24T12:31:17.173Z,770
2017-02-24T12:32:30.265Z,755
2017-02-24T12:33:43.357Z,725
2017-02-24T12:34:56.032Z,700
2017-02-24T12:36:09.134Z,690
2017-02-24T12:37:22.191Z,720
2017-02-24T12:38:35.252Z,675
2017-02-24T12:39:48.316Z,720
2017-02-24T12:41:01.379Z,755
2017-02-24T12:42:14.433Z,695
2017-02-24T12:43:27.527Z,655
2017-02-24T12:44:40.574Z,705
2017-02-24T12:45:53.642Z,570
2017-02-24T12:47:06.719Z,545
2017-02-24T12:48:19.041Z,490
2017-02-24T12:49:32.133Z,465
2017-02-24T12:50:45.196Z,450
2017-02-24T12:51:58.245Z,485
2017-02-24T12:53:11.321Z,510
2017-02-24T12:54:23.987Z,530
2017-02-24T12:55:37.094Z,535
2017-02-24T12:56:50.182Z,540
2017-02-24T12:58:02.900Z,530
2017-02-24T12:59:16.001Z,535
2017-02-24T13:00:29.070Z,550
2017-02-24T13:01:42.408Z,545
2017-02-24T13:02:55.480Z,465
2017-02-24T13:04:08.561Z,460
2017-02-24T13:05:21.646Z,485
2017-02-24T13:06:34.707Z,460
2017-02-24T13:07:47.780Z,435
2017-02-24T13:09:00.870Z,375
2017-02-24T13:10:13.513Z,315
2017-02-24T13:11:26.205Z,270
2017-02-24T13:12:39.279Z,285
2017-02-24T13:13:52.380Z,285
2017-02-24T13:15:04.667Z,295
2017-02-24T13:16:17.764Z,350
2017-02-24T13:17:30.833Z,415
2017-02-24T13:18:43.540Z,435
2017-02-24T13:19:56.656Z,410
2017-02-24T13:21:09.753Z,415
2017-02-24T13:22:22.473Z,395
2017-02-24T13:23:35.143Z,395
2017-02-24T13:24:48.193Z,435
2017-02-24T13:26:01.252Z,465
2017-02-24T13:27:14.323Z,460
2017-02-24T13:28:26.994Z,390
2017-02-24T13:29:40.047Z,350
2017-02-24T13:30:52.763Z,370
2017-02-24T13:32:05.830Z,370
2017-02-24T13:33:18.514Z,430
2017-02-24T13:34:31.633Z,475
2017-02-24T13:35:44.694Z,485
2017-02-24T13:36:57.772Z,465
2017-02-24T13:38:10.814Z,415
2017-02-24T13:39:22.743Z,395
2017-02-24T13:40:35.456Z,375
2017-02-24T13:41:48.550Z,350
2017-02-24T13:43:01.626Z,300
2017-02-24T13:44:14.297Z,290
2017-02-24T13:45:27.398Z,295
2017-02-24T13:46:40.506Z,300
2017-02-24T13:47:53.588Z,295
2017-02-24T13:49:06.638Z,285
2017-02-24T13:50:19.701Z,275
2017-02-24T13:51:32.772Z,280
2017-02-24T13:52:45.820Z,305
2017-02-24T13:53:58.860Z,325
2017-02-24T13:55:11.979Z,370
2017-02-24T13:56:24.276Z,445
2017-02-24T13:57:36.973Z,480
2017-02-24T13:58:50.066Z,420
2017-02-24T14:00:03.121Z,335
2017-02-24T14:01:16.169Z,285
2017-02-24T14:02:29.235Z,245
2017-02-24T14:03:41.906Z,225
2017-02-24T14:04:54.977Z,215
2017-02-24T14:06:08.030Z,245
2017-02-24T14:07:21.094Z,245
2017-02-24T14:08:34.140Z,235
2017-02-24T14:09:47.231Z,225
2017-02-24T14:11:00.333Z,200
2017-02-24T14:12:12.647Z,195
2017-02-24T14:13:25.701Z,205
2017-02-24T14:14:38.787Z,200
2017-02-24T14:15:51.464Z,200
2017-02-24T14:17:04.556Z,200
2017-02-24T14:18:17.249Z,210
2017-02-24T14:19:30.327Z,220
2017-02-24T14:20:43.379Z,230
2017-02-24T14:21:56.469Z,245
2017-02-24T14:23:09.540Z,225
2017-02-24T14:24:22.611Z,205
2017-02-24T14:25:34.904Z,175
2017-02-24T14:26:48.028Z,180
2017-02-24T14:28:01.066Z,170
2017-02-24T14:29:14.120Z,170
2017-02-24T14:30:26.787Z,170
2017-02-24T14:31:39.858Z,165
2017-02-24T14:32:52.901Z,175
2017-02-24T14:34:05.974Z,175
2017-02-24T14:35:19.070Z,180
2017-02-24T14:36:32.163Z,180
2017-02-24T14:37:44.474Z,180
2017-02-24T14:38:57.158Z,180
2017-02-24T14:40:09.851Z,180
2017-02-24T14:41:22.939Z,175
2017-02-24T14:42:36.003Z,180
2017-02-24T14:43:49.088Z,180
2017-02-24T14:45:01.784Z,175
2017-02-24T14:46:14.863Z,175
2017-02-24T14:47:27.925Z,175
2017-02-24T14:48:40.982Z,175
2017-02-24T14:49:54.032Z,170
2017-02-24T14:51:06.722Z,170
2017-02-24T14:52:19.774Z,170
2017-02-24T14:53:32.456Z,170
2017-02-24T14:54:45.090Z,170
2017-02-24T14:55:58.172Z,165
2017-02-24T14:57:11.255Z,165
2017-02-24T14:58:24.346Z,165
2017-02-24T14:59:37.415Z,165
2017-02-24T15:00:50.494Z,160
2017-02-24T15:02:03.577Z,160
2017-02-24T15:03:16.639Z,160
2017-02-24T15:04:29.681Z,160
2017-02-24T15:05:42.339Z,160
2017-02-24T15:06:55.021Z,155
2017-02-24T15:08:07.756Z,155
2017-02-24T15:09:20.435Z,155
2017-02-24T15:10:33.560Z,155
2017-02-24T15:11:46.257Z,150
2017-02-24T15:12:58.901Z,150
2017-02-24T15:14:11.968Z,150
2017-02-24T15:15:25.032Z,150
2017-02-24T15:16:38.114Z,145
2017-02-24T15:17:51.231Z,145
2017-02-24T15:19:04.330Z,145
2017-02-24T15:20:17.371Z,145
2017-02-24T15:21:30.446Z,140
2017-02-24T15:22:43.484Z,140
2017-02-24T15:23:56.206Z,140
2017-02-24T15:25:08.907Z,135
2017-02-24T15:26:21.949Z,135
2017-02-24T15:27:34.642Z,135
2017-02-24T15:28:47.690Z,130
2017-02-24T15:30:00.785Z,130
2017-02-24T15:31:13.060Z,130
2017-02-24T15:32:26.098Z,125
2017-02-24T15:33:38.783Z,125
2017-02-24T15:34:51.852Z,125
2017-02-24T15:36:04.549Z,120
2017-02-24T15:37:17.597Z,120
2017-02-24T15:38:30.637Z,120
2017-02-24T15:39:43.950Z,115
2017-02-24T15:40:56.998Z,115
2017-02-24T15:42:09.649Z,115
2017-02-24T15:43:22.724Z,110
2017-02-24T15:44:35.420Z,110
2017-02-24T15:45:48.516Z,105
2017-02-24T15:47:01.564Z,105
2017-02-24T15:48:14.608Z,105
2017-02-24T15:49:26.546Z,100
2017-02-24T15:50:39.621Z,100
2017-02-24T15:51:52.667Z,95
2017-02-24T15:53:04.960Z,95
2017-02-24T15:54:18.013Z,90
2017-02-24T15:55:31.058Z,90
2017-02-24T15:56:44.103Z,90
2017-02-24T15:57:56.771Z,85
2017-02-24T15:59:09.845Z,85
2017-02-24T16:00:22.169Z,85
2017-02-24T16:01:34.827Z,80
2017-02-24T16:02:47.888Z,80
2017-02-24T16:04:00.975Z,75
2017-02-24T16:05:13.664Z,75
2017-02-24T16:06:26.721Z,70
2017-02-24T16:07:39.810Z,70
2017-02-24T16:08:52.480Z,65
2017-02-24T16:10:05.184Z,65
2017-02-24T16:11:18.251Z,60
2017-02-24T16:12:31.326Z,60
2017-02-24T16:13:44.413Z,55
2017-02-24T16:14:57.504Z,55
2017-02-24T16:16:10.185Z,50
2017-02-24T16:17:23.260Z,50
2017-02-24T16:18:36.004Z,45
2017-02-24T16:19:49.100Z,45
2017-02-24T16:21:01.800Z,40
2017-02-24T16:22:14.864Z,40
2017-02-24T16:23:27.528Z,35
2017-02-24T16:24:40.582Z,35
2017-02-24T16:25:53.608Z,30
2017-02-24T16:27:06.677Z,30
2017-02-24T16:28:19.736Z,25
2017-02-24T16:29:32.783Z,25
2017-02-24T16:30:45.460Z,20
2017-02-24T16:31:58.510Z,20
2017-02-24T16:33:11.570Z,20
2017-02-24T16:34:24.598Z,15
2017-02-24T16:35:37.672Z,15
2017-02-24T16:36:50.720Z,10
2017-02-24T16:38:03.402Z,10
2017-02-24T16:39:16.049Z,10
2017-02-24T16:40:29.127Z,10
2017-02-24T16:41:42.229Z,5
2017-02-24T16:42:55.294Z,5
2017-02-24T16:44:08.340Z,5
2017-02-24T16:45:21.429Z,5
2017-02-24T16:46:34.507Z,5
2017-02-24T16:47:47.570Z,0
2017-02-24T16:49:00.626Z,0
2017-02-24T16:50:13.297Z,0
2017-02-24T16:51:26.336Z,0
2017-02-24T16:52:39.386Z,0
2017-02-24T16:53:52.432Z,0
2017-02-24T16:55:05.503Z,0
2017-02-24T16:56:18.557Z,0
2017-02-24T16:57:31.612Z,0
2017-02-24T16:58:44.641Z,0
2017-02-24T16:59:57.330Z,0
2017-02-24T17:01:10.404Z,0
2017-02-24T17:02:23.475Z,0
2017-02-24T17:03:36.516Z,0
2017-02-24T17:04:49.219Z,0
2017-02-24T17:06:01.892Z,0
2017-02-24T17:07:14.968Z,0
2017-02-24T17:08:28.051Z,0
2017-02-24T17:09:41.098Z,0
2017-02-24T17:10:53.800Z,0
2017-02-24T17:12:06.846Z,0
2017-02-24T17:13:19.916Z,0
2017-02-24T17:14:33.040Z,0
2017-02-24T17:15:45.354Z,0